Stations météo

réclame
Mon MeteoGroup
Bujaraloz, Espagne (8165): Température de l'air & dewpoint: 22.05.2018 07:00:00 - 28.05.2018 07:00:00 (CEST)Bujaraloz, Espagne (8165): Vitesse du vent & gusts: 22.05.2018 07:00:00 - 28.05.2018 07:00:00 (CEST)Bujaraloz, Espagne (8165): Direction du vent: 22.05.2018 07:00:00 - 28.05.2018 07:00:00 (CEST)Bujaraloz, Espagne (8165): reduced air pressure: 22.05.2018 07:00:00 - 28.05.2018 07:00:00 (CEST)Bujaraloz, Espagne (8165): Quantités de précipitations: 22.05.2018 07:00:00 - 28.05.2018 07:00:00 (CEST)
Date & Time tt [°C] td [°C] ff [km/h] ff [knt] fx [km/h] fx [knt] dd ppp [hPa] rr [mm]
28.05.2018 07:00:00 - - - - - - - - -
28.05.2018 06:00:00 15,2 14,9 9 5 22 12 WSW 1012,4 3,0
28.05.2018 05:00:00 15,3 15,0 11 6 24 13 W 1012,1 0,2
28.05.2018 04:00:00 15,6 15,3 13 7 30 16 W 1012,2 15,6
28.05.2018 03:00:00 15,9 15,4 12 7 29 16 SW 1012,1 11,0
28.05.2018 02:00:00 15,9 15,4 5 3 24 13 NW 1012,4 -
28.05.2018 01:00:00 16,4 16,0 11 6 26 14 W 1012,1 10,8
28.05.2018 00:00:00 17,5 13,9 19 10 29 16 WSW 1011,6 0,0
27.05.2018 23:00:00 20,2 15,0 10 6 20 11 ESE 1010,7 0,0
27.05.2018 22:00:00 21,3 14,4 2 1 8 4 ENE 1009,8 0,0
27.05.2018 21:00:00 22,4 14,8 3 2 16 9 S 1009,4 0,0
27.05.2018 20:00:00 23,4 14,7 10 6 19 11 SSE 1009,0 -
27.05.2018 19:00:00 24,3 14,4 14 8 26 14 S 1009,2 0,0
27.05.2018 18:00:00 25,2 14,6 4 2 12 6 NNE 1008,9 0,0
27.05.2018 17:00:00 25,3 14,1 6 4 26 14 NNE 1008,5 0,0
27.05.2018 16:00:00 25,0 14,4 15 8 28 15 E 1009,2 0,0
27.05.2018 15:00:00 24,8 14,2 14 8 23 13 E 1010,1 0,0
27.05.2018 14:00:00 23,8 14,2 7 4 22 12 E 1010,9 -
27.05.2018 13:00:00 21,9 14,0 7 4 16 9 E 1011,8 0,0
27.05.2018 12:00:00 21,0 14,4 6 3 13 7 SE 1012,5 0,0
27.05.2018 11:00:00 19,5 14,7 4 2 10 5 SSW 1012,7 0,0
27.05.2018 10:00:00 18,4 15,1 5 3 11 6 WSW 1013,1 0,0
27.05.2018 09:00:00 17,3 14,9 5 3 11 6 WSW 1012,8 0,0
27.05.2018 08:00:00 17,2 14,8 4 2 10 6 W 1012,3 -
27.05.2018 07:00:00 16,3 14,6 7 4 13 7 NW 1012,2 0,0
27.05.2018 06:00:00 15,3 13,9 8 4 13 7 NW 1012,3 0,0
27.05.2018 05:00:00 15,3 13,7 8 4 11 6 NW 1012,3 0,0
27.05.2018 04:00:00 16,4 14,4 5 3 11 6 N 1012,3 0,0
27.05.2018 03:00:00 16,4 14,6 7 4 19 10 NE 1012,7 0,0
27.05.2018 02:00:00 16,3 14,3 7 4 16 9 N 1013,2 -
27.05.2018 01:00:00 16,5 14,3 8 4 17 9 NNE 1013,4 0,0
27.05.2018 00:00:00 16,6 14,2 10 6 20 11 ENE 1013,4 0,0
26.05.2018 23:00:00 17,0 14,4 12 7 19 10 E 1012,9 0,0
26.05.2018 22:00:00 17,8 14,5 14 8 23 12 E 1011,8 0,0
26.05.2018 21:00:00 19,2 14,6 17 9 30 16 E 1011,5 0,0
26.05.2018 20:00:00 20,8 14,4 24 13 37 20 E 1011,0 -
26.05.2018 19:00:00 22,0 14,4 32 17 44 24 E 1010,0 0,0
26.05.2018 18:00:00 22,0 14,4 29 16 50 27 ESE 1010,9 0,0
26.05.2018 17:00:00 23,7 14,4 27 15 40 22 E 1010,5 0,0
26.05.2018 16:00:00 24,0 14,7 27 15 44 24 E 1010,7 0,0
26.05.2018 15:00:00 24,4 14,2 29 16 46 25 E 1010,9 0,0
26.05.2018 14:00:00 24,4 14,5 29 16 44 24 ENE 1011,2 -
26.05.2018 13:00:00 24,0 14,4 24 13 40 21 E 1011,4 0,0
26.05.2018 12:00:00 21,8 15,6 24 13 42 23 E 1011,8 0,0
26.05.2018 11:00:00 20,7 15,7 27 15 37 20 E 1012,0 0,0
26.05.2018 10:00:00 19,4 15,7 17 9 23 12 E 1012,5 0,0
26.05.2018 09:00:00 17,3 14,9 15 8 25 14 ENE 1013,0 0,0
26.05.2018 08:00:00 - - - - - - - - -
26.05.2018 07:00:00 15,5 13,9 14 8 21 11 ENE 1012,4 0,0
26.05.2018 06:00:00 15,5 13,2 7 4 16 9 NE 1012,0 0,0
26.05.2018 05:00:00 16,0 13,5 10 5 21 11 NE 1011,9 0,0
26.05.2018 04:00:00 16,2 14,4 11 6 19 10 NE 1012,1 0,0
26.05.2018 03:00:00 16,2 14,0 7 4 17 9 NNE 1012,5 0,0
26.05.2018 02:00:00 16,8 14,2 13 7 21 11 ENE 1012,5 -
26.05.2018 01:00:00 17,4 14,3 14 7 29 15 E 1012,8 0,0
26.05.2018 00:00:00 17,3 14,0 22 12 41 22 E 1012,1 0,0
25.05.2018 23:00:00 17,1 13,5 19 10 29 16 E 1011,8 0,0
25.05.2018 22:00:00 18,1 13,0 16 9 42 23 E 1011,2 0,0
25.05.2018 21:00:00 20,3 12,5 24 13 45 24 ESE 1010,0 0,0
25.05.2018 20:00:00 22,0 12,5 28 15 50 27 ESE 1009,9 -
25.05.2018 19:00:00 23,8 12,7 29 15 44 24 E 1009,5 0,0
25.05.2018 18:00:00 25,6 12,7 24 13 48 26 ESE 1009,4 0,0
25.05.2018 17:00:00 26,3 10,9 32 18 52 28 ESE 1009,1 0,0
25.05.2018 16:00:00 26,8 9,7 32 17 48 26 E 1009,2 0,0
25.05.2018 15:00:00 27,0 9,8 27 15 48 26 E 1009,4 0,0
25.05.2018 14:00:00 24,6 11,6 24 13 37 20 E 1010,4 -
25.05.2018 13:00:00 23,1 11,8 25 13 41 22 ENE 1011,2 0,0
25.05.2018 12:00:00 21,3 12,7 23 13 37 20 E 1012,3 0,0
25.05.2018 11:00:00 19,3 13,9 14 8 29 16 ENE 1013,0 0,0
25.05.2018 10:00:00 16,4 13,7 8 4 28 15 N 1014,1 0,2
25.05.2018 09:00:00 15,9 12,8 14 8 27 15 NNW 1014,0 0,0
25.05.2018 08:00:00 14,7 12,4 6 4 23 12 NW 1015,1 -
25.05.2018 07:00:00 15,0 12,1 10 5 21 12 N 1014,1 0,0
25.05.2018 06:00:00 15,6 10,2 10 5 48 26 S 1013,9 1,0
25.05.2018 05:00:00 15,1 11,9 16 9 24 13 NE 1014,4 0,0
25.05.2018 04:00:00 15,7 10,4 7 4 13 7 SE 1015,5 0,0
25.05.2018 03:00:00 15,3 9,8 5 3 16 8 N 1014,7 0,0
25.05.2018 02:00:00 16,3 9,4 8 4 22 12 NE 1014,5 -
25.05.2018 01:00:00 17,3 8,9 11 6 24 13 NE 1014,5 0,0
25.05.2018 00:00:00 18,2 10,3 12 7 18 10 ENE 1014,2 0,0
24.05.2018 23:00:00 19,4 10,6 13 7 19 11 E 1014,0 0,0
24.05.2018 22:00:00 20,3 9,2 13 7 29 16 ENE 1013,3 0,0
24.05.2018 21:00:00 21,9 7,7 23 12 44 24 E 1012,5 0,0
24.05.2018 20:00:00 24,1 9,3 26 14 42 23 E 1011,8 -
24.05.2018 19:00:00 26,8 10,0 28 15 43 23 E 1011,2 0,0
24.05.2018 18:00:00 28,7 11,3 23 12 35 19 E 1010,9 0,0
24.05.2018 17:00:00 28,3 11,3 16 9 29 16 NE 1011,3 0,0
24.05.2018 16:00:00 28,1 12,0 11 6 25 13 ENE 1011,8 0,0
24.05.2018 15:00:00 27,5 11,6 13 7 24 13 E 1012,9 0,0
24.05.2018 14:00:00 26,1 12,5 13 7 26 14 E 1013,5 -
24.05.2018 13:00:00 24,4 13,3 8 4 22 12 ENE 1014,5 0,0
24.05.2018 12:00:00 22,1 13,9 13 7 20 11 E 1015,1 0,0
24.05.2018 11:00:00 20,5 13,9 13 7 21 11 E 1015,6 0,0
24.05.2018 10:00:00 19,2 14,2 12 7 19 10 E 1016,1 0,0
24.05.2018 09:00:00 17,4 14,5 12 6 20 11 NE 1016,2 0,0
24.05.2018 08:00:00 16,1 14,4 9 5 19 10 NNE 1016,3 -
24.05.2018 07:00:00 14,9 14,1 9 5 20 11 NNW 1016,6 0,0
24.05.2018 06:00:00 15,2 14,2 13 7 23 13 NNW 1016,5 0,0
24.05.2018 05:00:00 15,7 14,2 8 4 18 10 NNW 1016,3 0,0
24.05.2018 04:00:00 16,2 14,4 6 3 13 7 N 1016,1 0,0
24.05.2018 03:00:00 16,9 14,5 6 3 15 8 NE 1016,4 0,0
24.05.2018 02:00:00 17,4 14,3 4 2 10 5 NNE 1016,3 -
24.05.2018 01:00:00 17,7 14,0 3 2 10 5 NNE 1016,8 0,0
24.05.2018 00:00:00 18,1 13,6 7 4 11 6 NE 1017,2 0,0
23.05.2018 23:00:00 18,2 13,5 3 1 15 8 N 1017,1 0,0
23.05.2018 22:00:00 18,4 14,0 6 3 27 14 N 1016,2 0,0
23.05.2018 21:00:00 19,7 14,3 13 7 38 20 NW 1016,3 0,0
23.05.2018 20:00:00 21,4 15,4 10 6 28 15 SW 1014,6 -
23.05.2018 19:00:00 23,7 13,6 14 8 30 16 SSE 1013,2 0,0
23.05.2018 18:00:00 26,2 12,3 14 7 23 13 E 1012,6 0,0
23.05.2018 17:00:00 26,8 11,3 12 6 24 13 NE 1012,6 0,0
23.05.2018 16:00:00 26,4 11,7 13 7 23 12 E 1013,3 0,0
23.05.2018 15:00:00 25,0 11,9 8 4 21 11 E 1014,2 0,0
23.05.2018 14:00:00 23,5 13,7 8 4 19 10 E 1015,4 -
23.05.2018 13:00:00 22,8 14,6 9 5 24 13 E 1015,9 0,0
23.05.2018 12:00:00 21,1 14,0 9 5 19 11 NE 1016,3 0,0
23.05.2018 11:00:00 19,1 13,9 5 3 15 8 NNE 1016,6 0,0
23.05.2018 10:00:00 17,1 13,7 3 2 9 5 SSW 1016,9 0,0
23.05.2018 09:00:00 16,3 13,3 5 3 14 7 E 1016,9 0,0
23.05.2018 08:00:00 14,7 12,5 5 3 10 5 N 1016,8 -
23.05.2018 07:00:00 13,6 12,0 6 3 15 8 NNW 1016,6 0,0
23.05.2018 06:00:00 13,7 12,1 9 5 17 9 NNW 1016,0 0,0
23.05.2018 05:00:00 13,6 12,1 9 5 19 10 NW 1016,1 0,0
23.05.2018 04:00:00 14,2 12,1 10 5 18 10 NNW 1015,9 0,0
23.05.2018 03:00:00 14,6 12,1 11 6 18 10 NNW 1015,8 0,0
23.05.2018 02:00:00 15,0 12,0 8 5 16 8 N 1015,7 -
23.05.2018 01:00:00 16,1 12,6 6 3 12 6 N 1015,3 0,0
23.05.2018 00:00:00 16,8 12,3 5 3 14 8 NNE 1014,9 0,0
22.05.2018 23:00:00 18,3 12,3 7 4 16 8 NNE 1014,5 0,0
22.05.2018 22:00:00 19,5 12,5 7 4 16 9 ENE 1013,3 0,0
22.05.2018 21:00:00 22,3 12,2 14 8 23 12 E 1012,1 0,0
22.05.2018 20:00:00 25,6 9,8 7 4 17 9 N 1011,1 -
22.05.2018 19:00:00 26,4 7,0 9 5 23 12 W 1010,8 0,0
22.05.2018 18:00:00 26,8 10,5 6 3 19 11 NW 1010,5 0,0
22.05.2018 17:00:00 25,0 11,6 6 3 24 13 N 1010,8 0,0
22.05.2018 16:00:00 25,5 12,3 10 6 28 15 N 1011,0 0,0
22.05.2018 15:00:00 25,2 10,6 12 7 23 13 WSW 1011,6 0,0
22.05.2018 14:00:00 23,0 12,0 9 5 23 12 WSW 1012,3 -
22.05.2018 13:00:00 21,5 12,8 8 4 20 11 SW 1012,8 0,0
22.05.2018 12:00:00 19,3 13,3 10 5 23 13 W 1013,3 0,0
22.05.2018 11:00:00 18,0 13,3 11 6 19 11 WSW 1013,4 0,0
22.05.2018 10:00:00 16,0 13,3 8 4 18 10 WSW 1013,6 0,0
22.05.2018 09:00:00 14,3 12,5 9 5 18 10 WSW 1013,5 0,0
22.05.2018 08:00:00 11,9 10,8 0 0 10 6 N 1013,5 -
22.05.2018 07:00:00 12,3 10,4 6 3 20 11 S 1012,8 0,0

tt = Température de l'air
td = dewpoint
ff = Vitesse du vent
fx = gusts
dd = Direction du vent
ppp = reduced air pressure
rr = Quantités de précipitations

stations d'obs. à proximité